Time;durP1;ratioP1;P1;durP2;ratioP2;P2;SDS_P1;SDS_P2;PMS_P1;PMS_P2;Temp;Humidity;BMP_temperature;BMP_pressure;BME280_temperature;BME280_humidity;BME280_pressure;Samples;Min_cycle;Max_cycle;Signal;HPM_P1;HPM_P2
2023/01/24 06:00:37;;;;;;;20.33;17.00;;;4.70;97.20;;;;;;1715084;28;20268;-70
2023/01/24 06:01:28;;;;;;;20.13;16.92;;;4.70;97.20;;;;;;1714993;28;20206;-70
2023/01/24 06:02:19;;;;;;;20.43;16.50;;;4.70;97.20;;;;;;1715056;28;20204;-72
2023/01/24 06:03:10;;;;;;;20.92;17.20;;;4.70;97.20;;;;;;1715108;28;20838;-71
2023/01/24 06:04:02;;;;;;;20.60;16.20;;;4.70;97.20;;;;;;1716679;28;20230;-72
2023/01/24 06:04:52;;;;;;;18.42;16.20;;;4.70;97.20;;;;;;1720820;28;20704;-70
2023/01/24 06:05:46;;;;;;;20.13;16.57;;;4.70;97.20;;;;;;1721336;28;20604;-71
2023/01/24 06:06:38;;;;;;;19.35;16.55;;;4.80;97.20;;;;;;1721369;28;20212;-71
2023/01/24 06:07:29;;;;;;;19.48;16.92;;;4.80;97.20;;;;;;1721112;28;20198;-71
2023/01/24 06:08:21;;;;;;;19.90;16.67;;;4.80;97.20;;;;;;1721074;28;20205;-70
2023/01/24 06:09:13;;;;;;;21.08;16.88;;;4.80;97.20;;;;;;1721098;28;20236;-71
2023/01/24 06:10:04;;;;;;;19.80;16.48;;;4.80;97.20;;;;;;1721302;28;20201;-71
2023/01/24 06:10:56;;;;;;;19.20;16.98;;;4.80;97.20;;;;;;1721186;28;20231;-71
2023/01/24 06:11:46;;;;;;;18.17;16.15;;;4.80;97.20;;;;;;1721278;28;20201;-71
2023/01/24 06:12:38;;;;;;;18.93;16.93;;;4.80;97.20;;;;;;1721432;28;20201;-71
2023/01/24 06:13:29;;;;;;;18.70;16.70;;;4.80;97.20;;;;;;1720837;28;20225;-71
2023/01/24 06:14:21;;;;;;;18.17;16.05;;;4.80;97.20;;;;;;1720415;28;20225;-71
2023/01/24 06:15:12;;;;;;;20.10;16.40;;;4.80;97.20;;;;;;1720997;28;20212;-71
2023/01/24 06:16:09;;;;;;;17.53;15.63;;;4.80;97.20;;;;;;1721318;28;20201;-71
2023/01/24 06:17:00;;;;;;;19.02;16.60;;;4.80;97.20;;;;;;1721206;28;20687;-71
2023/01/24 06:17:52;;;;;;;19.13;16.67;;;4.70;97.20;;;;;;1721298;28;20663;-70
2023/01/24 06:18:43;;;;;;;18.30;16.35;;;4.70;97.20;;;;;;1721177;28;20778;-69
2023/01/24 06:19:35;;;;;;;18.77;16.70;;;4.70;97.20;;;;;;1721233;28;20208;-71
2023/01/24 06:20:26;;;;;;;21.05;17.23;;;4.70;97.20;;;;;;1720917;28;20585;-71
2023/01/24 06:21:35;;;;;;;19.98;16.55;;;4.70;97.20;;;;;;1720987;28;20197;-71
2023/01/24 06:22:36;;;;;;;19.00;15.95;;;4.70;97.20;;;;;;1721146;28;20228;-71
2023/01/24 06:23:28;;;;;;;19.15;16.30;;;4.70;97.20;;;;;;1720831;28;20201;-70
2023/01/24 06:24:21;;;;;;;19.17;17.08;;;4.70;97.20;;;;;;1720609;28;20206;-71
2023/01/24 06:25:20;;;;;;;18.48;16.48;;;4.70;97.20;;;;;;1721292;28;20568;-71
2023/01/24 06:26:12;;;;;;;20.10;16.25;;;4.70;97.20;;;;;;1721220;28;20209;-71
2023/01/24 06:27:04;;;;;;;17.70;15.65;;;4.70;97.20;;;;;;1720725;28;20203;-71
2023/01/24 06:27:55;;;;;;;18.67;15.65;;;4.70;97.20;;;;;;1721227;28;20698;-72
2023/01/24 06:28:47;;;;;;;18.85;16.13;;;4.70;97.20;;;;;;1721060;28;20205;-71
2023/01/24 06:29:38;;;;;;;17.92;16.13;;;4.70;97.20;;;;;;1721235;28;20209;-71
2023/01/24 06:30:30;;;;;;;18.70;15.80;;;4.70;97.20;;;;;;1721047;28;20281;-71
2023/01/24 06:31:33;;;;;;;19.50;16.83;;;4.70;97.20;;;;;;1720994;28;20201;-70
2023/01/24 06:32:36;;;;;;;19.15;16.73;;;4.70;97.20;;;;;;1721126;28;20205;-70
2023/01/24 06:33:36;;;;;;;19.15;16.33;;;4.70;97.20;;;;;;1720827;28;20221;-71
2023/01/24 06:34:42;;;;;;;23.05;17.00;;;4.70;97.20;;;;;;1720657;28;20229;-71
2023/01/24 06:35:43;;;;;;;17.60;15.70;;;4.70;97.20;;;;;;1720832;28;20209;-72
2023/01/24 06:36:47;;;;;;;20.65;17.05;;;4.70;97.20;;;;;;1721150;28;20722;-70
2023/01/24 06:37:45;;;;;;;19.60;17.50;;;4.70;97.20;;;;;;1720771;28;20205;-71
2023/01/24 06:38:37;;;;;;;19.13;15.93;;;4.70;97.20;;;;;;1720934;28;20194;-71
2023/01/24 06:39:28;;;;;;;18.67;15.65;;;4.70;97.20;;;;;;1720548;28;20193;-71
2023/01/24 06:40:24;;;;;;;19.27;17.25;;;4.80;97.20;;;;;;1721026;28;20205;-71
2023/01/24 06:41:16;;;;;;;16.90;15.10;;;4.70;97.20;;;;;;1720692;28;20209;-71
2023/01/24 06:42:09;;;;;;;17.25;14.82;;;4.70;97.20;;;;;;1721046;28;20223;-70
2023/01/24 06:43:02;;;;;;;17.58;15.73;;;4.70;97.20;;;;;;1721074;28;20208;-71
2023/01/24 06:43:54;;;;;;;19.25;16.25;;;4.70;97.20;;;;;;1722325;28;20200;-71
2023/01/24 06:44:45;;;;;;;18.83;16.75;;;4.80;97.20;;;;;;1720984;28;20212;-71
2023/01/24 06:45:37;;;;;;;18.23;16.23;;;4.80;97.20;;;;;;1720670;28;20204;-71
2023/01/24 06:46:29;;;;;;;17.48;15.57;;;4.80;97.20;;;;;;1720962;28;20208;-71
2023/01/24 06:47:21;;;;;;;17.83;15.93;;;4.80;97.20;;;;;;1720645;28;20730;-72
2023/01/24 06:48:12;;;;;;;19.25;16.17;;;4.80;97.20;;;;;;1720930;28;20212;-72
2023/01/24 06:49:03;;;;;;;19.53;16.47;;;4.80;97.20;;;;;;1720953;28;20197;-71
2023/01/24 06:49:54;;;;;;;22.63;16.27;;;4.80;97.20;;;;;;1720918;28;20205;-71
2023/01/24 06:50:46;;;;;;;19.17;16.35;;;4.80;97.20;;;;;;1720904;28;20229;-71
2023/01/24 06:51:38;;;;;;;18.95;16.33;;;4.80;97.20;;;;;;1721009;28;20558;-71
2023/01/24 06:52:29;;;;;;;17.75;15.85;;;4.80;97.20;;;;;;1721038;28;20201;-71
2023/01/24 06:53:20;;;;;;;18.50;16.08;;;4.80;97.20;;;;;;1720727;28;20213;-71
2023/01/24 06:54:12;;;;;;;18.13;16.17;;;4.80;97.20;;;;;;1720492;28;20678;-71
2023/01/24 06:55:03;;;;;;;18.00;15.73;;;4.80;97.20;;;;;;1720697;28;20201;-71
2023/01/24 06:55:55;;;;;;;17.23;15.27;;;4.80;97.20;;;;;;1720888;28;20213;-71
2023/01/24 06:56:46;;;;;;;17.58;15.63;;;4.80;97.20;;;;;;1720908;28;20216;-71
2023/01/24 06:57:37;;;;;;;28.37;16.67;;;4.80;97.20;;;;;;1720665;28;20211;-71
2023/01/24 06:58:28;;;;;;;18.27;15.65;;;4.80;97.20;;;;;;1720911;28;20583;-71
2023/01/24 06:59:22;;;;;;;19.63;15.90;;;4.80;97.20;;;;;;1720702;28;20201;-71
2023/01/24 07:00:14;;;;;;;17.75;15.85;;;4.80;97.20;;;;;;1720861;28;20367;-70
2023/01/24 07:01:06;;;;;;;19.30;17.30;;;4.80;97.20;;;;;;1721016;28;20201;-71
2023/01/24 07:01:58;;;;;;;20.38;15.90;;;4.80;97.20;;;;;;1720962;28;20202;-71
2023/01/24 07:02:57;;;;;;;19.98;16.52;;;4.80;97.20;;;;;;1720910;28;20201;-71
2023/01/24 07:03:47;;;;;;;17.42;15.38;;;4.80;97.20;;;;;;1720214;28;20210;-71
2023/01/24 07:04:39;;;;;;;20.43;16.70;;;4.80;97.20;;;;;;1720937;28;20194;-71
2023/01/24 07:05:30;;;;;;;18.65;16.45;;;4.80;97.20;;;;;;1720821;28;20201;-71
2023/01/24 07:06:23;;;;;;;18.60;16.03;;;4.80;97.20;;;;;;1720862;28;20213;-71
2023/01/24 07:07:13;;;;;;;19.27;16.23;;;4.80;97.20;;;;;;1720489;28;20594;-70
2023/01/24 07:08:07;;;;;;;22.17;17.67;;;4.80;97.20;;;;;;1720784;28;20209;-70
2023/01/24 07:08:57;;;;;;;18.85;16.60;;;4.80;97.20;;;;;;1720970;28;20595;-70
2023/01/24 07:09:49;;;;;;;19.83;16.27;;;4.80;97.20;;;;;;1720880;28;20193;-70
2023/01/24 07:10:40;;;;;;;18.98;16.75;;;4.80;97.20;;;;;;1720838;28;20225;-71
2023/01/24 07:11:32;;;;;;;19.60;16.90;;;4.80;97.20;;;;;;1721154;28;20216;-70
2023/01/24 07:12:22;;;;;;;18.95;16.30;;;4.80;97.20;;;;;;1720804;28;20212;-70
2023/01/24 07:13:14;;;;;;;18.70;16.33;;;4.80;97.20;;;;;;1720628;28;20220;-70
2023/01/24 07:14:05;;;;;;;20.13;15.98;;;4.80;97.20;;;;;;1720444;28;20276;-70
2023/01/24 07:14:56;;;;;;;19.00;17.00;;;4.80;97.20;;;;;;1720758;28;20406;-70
2023/01/24 07:15:47;;;;;;;20.17;16.52;;;4.80;97.20;;;;;;1720490;28;20691;-71
2023/01/24 07:16:39;;;;;;;18.77;16.77;;;4.70;97.20;;;;;;1720613;28;20681;-71
2023/01/24 07:17:32;;;;;;;20.58;17.63;;;4.70;97.20;;;;;;1720390;28;20197;-71
2023/01/24 07:18:24;;;;;;;18.27;16.38;;;4.70;97.20;;;;;;1721164;28;20202;-71
2023/01/24 07:19:18;;;;;;;17.40;15.45;;;4.70;97.20;;;;;;1721357;28;20201;-69
2023/01/24 07:20:10;;;;;;;18.63;15.98;;;4.70;97.20;;;;;;1718517;28;20236;-70
2023/01/24 07:21:06;;;;;;;19.23;16.20;;;4.70;97.20;;;;;;1719465;28;20205;-70
2023/01/24 07:21:58;;;;;;;20.05;15.23;;;4.70;97.20;;;;;;1714049;28;20206;-70
2023/01/24 07:22:50;;;;;;;17.25;15.20;;;4.70;97.20;;;;;;1719368;28;20259;-70
2023/01/24 07:23:44;;;;;;;19.00;16.63;;;4.70;97.20;;;;;;1720508;28;20205;-70
2023/01/24 07:24:36;;;;;;;18.42;16.45;;;4.70;97.20;;;;;;1720547;28;20208;-70
2023/01/24 07:25:28;;;;;;;19.20;16.77;;;4.70;97.20;;;;;;1720594;28;20204;-70
2023/01/24 07:26:20;;;;;;;18.27;16.15;;;4.70;97.20;;;;;;1720611;28;20603;-70
2023/01/24 07:27:12;;;;;;;17.95;16.05;;;4.70;97.20;;;;;;1720325;28;20205;-71
2023/01/24 07:28:04;;;;;;;19.42;15.85;;;4.70;97.20;;;;;;1721004;28;20622;-72
2023/01/24 07:28:54;;;;;;;16.80;15.05;;;4.70;97.20;;;;;;1721119;28;20220;-71
2023/01/24 07:29:46;;;;;;;18.17;15.17;;;4.70;97.20;;;;;;1721220;28;20201;-71
2023/01/24 07:30:37;;;;;;;18.42;15.80;;;4.70;97.20;;;;;;1720387;28;20605;-71
2023/01/24 07:31:29;;;;;;;20.03;15.33;;;4.70;97.20;;;;;;1720556;28;20567;-72
2023/01/24 07:32:19;;;;;;;17.40;15.45;;;4.70;97.20;;;;;;1719976;28;20205;-71
2023/01/24 07:33:13;;;;;;;17.93;16.03;;;4.70;97.20;;;;;;1720993;28;20201;-71
2023/01/24 07:34:04;;;;;;;19.27;16.95;;;4.70;97.20;;;;;;1721025;28;20229;-71
2023/01/24 07:34:56;;;;;;;18.03;15.90;;;4.70;97.20;;;;;;1721005;28;20205;-72
2023/01/24 07:35:47;;;;;;;18.23;15.75;;;4.70;97.20;;;;;;1721205;28;20205;-72
2023/01/24 07:36:41;;;;;;;19.00;16.43;;;4.70;97.20;;;;;;1721134;28;20197;-71
2023/01/24 07:37:32;;;;;;;17.70;15.52;;;4.80;97.20;;;;;;1720843;28;20208;-72
2023/01/24 07:38:24;;;;;;;17.55;15.65;;;4.80;97.20;;;;;;1721045;28;20201;-72
2023/01/24 07:39:15;;;;;;;18.08;16.17;;;4.80;97.20;;;;;;1721058;28;20201;-71
2023/01/24 07:40:08;;;;;;;17.60;15.70;;;4.80;97.20;;;;;;1721137;28;20279;-70
2023/01/24 07:40:59;;;;;;;20.73;15.85;;;4.80;97.20;;;;;;1721030;28;20229;-72
2023/01/24 07:41:50;;;;;;;19.70;16.17;;;4.80;97.20;;;;;;1721163;28;20202;-71
2023/01/24 07:42:42;;;;;;;20.13;16.10;;;4.80;97.20;;;;;;1720705;28;20197;-72
2023/01/24 07:43:32;;;;;;;16.95;15.15;;;4.80;97.20;;;;;;1721161;28;20447;-71
2023/01/24 07:44:24;;;;;;;19.30;16.60;;;4.80;97.20;;;;;;1721029;28;20197;-70
2023/01/24 07:45:15;;;;;;;19.30;15.60;;;4.80;97.20;;;;;;1721087;28;20480;-71
2023/01/24 07:46:07;;;;;;;17.27;15.47;;;4.80;97.20;;;;;;1720669;28;20203;-71
2023/01/24 07:46:57;;;;;;;17.02;14.68;;;4.80;97.20;;;;;;1720513;28;20697;-71
2023/01/24 07:47:49;;;;;;;18.43;16.43;;;4.80;97.20;;;;;;1720934;28;20568;-71
2023/01/24 07:48:41;;;;;;;19.27;16.10;;;4.80;97.20;;;;;;1721061;28;20223;-72
2023/01/24 07:49:33;;;;;;;18.92;14.80;;;4.80;97.20;;;;;;1721075;28;20756;-71
2023/01/24 07:50:24;;;;;;;17.85;14.98;;;4.80;97.20;;;;;;1720979;28;20205;-71
2023/01/24 07:51:16;;;;;;;16.10;14.40;;;4.80;97.20;;;;;;1721076;28;20205;-71
2023/01/24 07:52:06;;;;;;;18.45;15.55;;;4.80;97.20;;;;;;1721028;28;20208;-71
2023/01/24 07:52:59;;;;;;;18.57;15.73;;;4.80;97.20;;;;;;1720723;28;20197;-72
2023/01/24 07:53:49;;;;;;;16.80;14.55;;;4.80;97.20;;;;;;1720918;28;20444;-71
2023/01/24 07:54:41;;;;;;;17.40;15.50;;;4.80;97.20;;;;;;1720974;28;20209;-71
2023/01/24 07:55:32;;;;;;;17.45;14.95;;;4.80;97.20;;;;;;1720985;28;20734;-71
2023/01/24 07:56:23;;;;;;;18.93;15.00;;;4.80;97.20;;;;;;1720973;28;20193;-71
2023/01/24 07:57:15;;;;;;;16.80;15.00;;;4.80;97.20;;;;;;1720667;28;20212;-71
2023/01/24 07:58:07;;;;;;;18.20;14.55;;;4.80;97.20;;;;;;1720991;28;20211;-71
2023/01/24 07:58:58;;;;;;;19.33;14.70;;;4.80;97.20;;;;;;1720944;28;20898;-71
2023/01/24 07:59:50;;;;;;;16.83;14.23;;;4.80;97.20;;;;;;1721051;28;20201;-71
2023/01/24 08:00:41;;;;;;;19.30;15.02;;;4.80;97.20;;;;;;1720819;28;20221;-71
2023/01/24 08:01:32;;;;;;;16.23;14.45;;;4.80;97.20;;;;;;1720980;28;20201;-71
2023/01/24 08:02:23;;;;;;;16.25;14.55;;;4.80;97.20;;;;;;1720710;28;20212;-72
2023/01/24 08:03:15;;;;;;;17.60;15.03;;;4.80;97.20;;;;;;1720988;28;20209;-71
2023/01/24 08:04:07;;;;;;;18.80;15.55;;;4.80;97.20;;;;;;1720981;28;20208;-71
2023/01/24 08:04:59;;;;;;;16.58;14.73;;;4.80;97.20;;;;;;1721035;28;20283;-72
2023/01/24 08:05:50;;;;;;;17.05;14.88;;;4.90;97.20;;;;;;1720929;28;20229;-71
2023/01/24 08:07:16;;;;;;;18.20;13.98;;;4.90;97.20;;;;;;1720900;28;20205;-71
2023/01/24 08:07:55;;;;;;;16.38;14.57;;;4.90;97.20;;;;;;1720868;28;20260;-71
2023/01/24 08:08:45;;;;;;;18.35;14.80;;;4.90;97.20;;;;;;1720854;28;20205;-71
2023/01/24 08:09:37;;;;;;;17.13;15.07;;;4.90;97.20;;;;;;1720994;28;20207;-71
2023/01/24 08:10:29;;;;;;;17.27;15.23;;;4.90;97.20;;;;;;1720879;28;20248;-71
2023/01/24 08:11:21;;;;;;;18.25;16.25;;;4.90;97.20;;;;;;1720918;28;20193;-71
2023/01/24 08:12:12;;;;;;;17.25;14.68;;;4.90;97.20;;;;;;1720956;28;20674;-71
2023/01/24 08:13:04;;;;;;;16.73;14.82;;;4.80;97.20;;;;;;1720741;28;20579;-71
2023/01/24 08:13:55;;;;;;;17.27;14.63;;;4.90;97.20;;;;;;1720821;28;20197;-70
2023/01/24 08:14:47;;;;;;;17.60;15.40;;;4.90;97.20;;;;;;1720945;28;20205;-72
2023/01/24 08:15:38;;;;;;;19.10;15.40;;;4.90;97.20;;;;;;1720817;28;20213;-71
2023/01/24 08:16:29;;;;;;;16.80;15.02;;;4.90;97.20;;;;;;1720999;28;20203;-71
2023/01/24 08:17:20;;;;;;;17.27;15.05;;;4.90;97.20;;;;;;1720544;28;20819;-71
2023/01/24 08:18:12;;;;;;;16.90;14.40;;;4.90;97.20;;;;;;1720935;28;20558;-71
2023/01/24 08:19:03;;;;;;;16.48;14.35;;;4.90;97.20;;;;;;1720769;28;20228;-71
2023/01/24 08:19:56;;;;;;;18.17;14.83;;;4.90;97.20;;;;;;1720896;28;20215;-71
2023/01/24 08:20:46;;;;;;;17.08;14.02;;;4.90;97.20;;;;;;1720777;28;20244;-71
2023/01/24 08:21:38;;;;;;;17.47;15.67;;;4.90;97.20;;;;;;1720894;28;20211;-72
2023/01/24 08:22:29;;;;;;;16.92;15.20;;;5.00;97.20;;;;;;1720603;28;20223;-72
2023/01/24 08:23:20;;;;;;;15.77;14.07;;;5.00;97.20;;;;;;1720798;28;20193;-72
2023/01/24 08:24:11;;;;;;;17.98;15.60;;;5.00;97.20;;;;;;1720773;28;20204;-71
2023/01/24 08:25:03;;;;;;;16.80;14.93;;;5.00;97.20;;;;;;1720817;28;20205;-71
2023/01/24 08:25:56;;;;;;;15.60;13.35;;;5.00;97.20;;;;;;1720891;28;20249;-71
2023/01/24 08:26:48;;;;;;;17.23;15.10;;;5.00;97.20;;;;;;1720811;28;20237;-71
2023/01/24 08:27:41;;;;;;;16.30;14.32;;;5.00;97.20;;;;;;1720567;28;20235;-71
2023/01/24 08:28:32;;;;;;;16.92;15.13;;;5.00;97.20;;;;;;1720777;28;20197;-71
2023/01/24 08:29:23;;;;;;;16.65;14.02;;;5.00;97.20;;;;;;1720809;28;20232;-71
2023/01/24 08:30:16;;;;;;;18.00;14.67;;;5.00;97.20;;;;;;1720709;28;20216;-71
2023/01/24 08:31:06;;;;;;;16.85;14.98;;;5.00;97.20;;;;;;1720847;28;20643;-71
2023/01/24 08:31:59;;;;;;;18.93;15.93;;;5.00;97.20;;;;;;1720829;28;20656;-71
2023/01/24 08:32:59;;;;;;;15.85;14.18;;;5.00;97.20;;;;;;1720362;28;20201;-71
2023/01/24 08:33:51;;;;;;;16.13;14.20;;;5.00;97.20;;;;;;1720783;28;20197;-71
2023/01/24 08:34:42;;;;;;;19.35;15.40;;;5.10;97.20;;;;;;1720647;28;20232;-71
2023/01/24 08:35:35;;;;;;;16.90;15.10;;;5.10;97.20;;;;;;1720827;28;20197;-71
2023/01/24 08:36:26;;;;;;;17.42;15.02;;;5.10;97.20;;;;;;1720646;28;20582;-71
2023/01/24 08:37:17;;;;;;;19.50;16.40;;;5.10;97.20;;;;;;1720338;28;20201;-72
2023/01/24 08:38:08;;;;;;;17.65;14.88;;;5.10;97.20;;;;;;1720681;28;20201;-72
2023/01/24 08:39:00;;;;;;;16.33;14.63;;;5.10;97.20;;;;;;1720693;28;20201;-71
2023/01/24 08:39:51;;;;;;;18.67;16.08;;;5.10;97.20;;;;;;1720792;28;20212;-71
2023/01/24 08:40:43;;;;;;;17.90;15.10;;;5.20;97.20;;;;;;1720653;28;20717;-72
2023/01/24 08:41:34;;;;;;;16.98;14.98;;;5.20;97.20;;;;;;1720749;28;20209;-70
2023/01/24 08:42:26;;;;;;;15.93;14.02;;;5.20;97.20;;;;;;1720565;28;20205;-71
2023/01/24 08:43:17;;;;;;;15.80;14.10;;;5.20;97.20;;;;;;1713965;28;20277;-72
2023/01/24 08:44:09;;;;;;;19.00;14.57;;;5.20;97.20;;;;;;1713557;28;20198;-71
2023/01/24 08:45:00;;;;;;;15.27;13.18;;;5.20;97.20;;;;;;1713774;28;20571;-71
2023/01/24 08:45:55;;;;;;;16.27;14.30;;;5.20;97.20;;;;;;1714109;28;20564;-72
2023/01/24 08:46:45;;;;;;;16.63;13.85;;;5.20;97.20;;;;;;1714304;28;20259;-71
2023/01/24 08:47:37;;;;;;;18.60;14.50;;;5.20;97.20;;;;;;1713754;28;20205;-71
2023/01/24 08:48:28;;;;;;;17.08;14.35;;;5.20;97.20;;;;;;1714037;28;20205;-72
2023/01/24 08:49:19;;;;;;;16.23;14.53;;;5.20;97.20;;;;;;1713869;28;20194;-71
2023/01/24 08:50:14;;;;;;;17.17;13.77;;;5.20;97.20;;;;;;1714058;28;20445;-71
2023/01/24 08:51:07;;;;;;;17.13;14.85;;;5.20;97.20;;;;;;1713937;28;20213;-72
2023/01/24 08:51:58;;;;;;;15.20;13.32;;;5.20;97.20;;;;;;1714045;28;20619;-71
2023/01/24 08:52:54;;;;;;;15.63;13.97;;;5.20;97.20;;;;;;1717260;28;20258;-71
2023/01/24 08:53:45;;;;;;;15.70;14.00;;;5.20;97.20;;;;;;1720616;28;20457;-71
2023/01/24 08:54:37;;;;;;;16.27;13.93;;;5.20;97.20;;;;;;1720565;28;20233;-71
2023/01/24 08:55:28;;;;;;;16.00;13.57;;;5.20;97.20;;;;;;1720619;28;20213;-71
2023/01/24 08:56:19;;;;;;;18.40;14.30;;;5.20;97.20;;;;;;1720663;28;20300;-71
2023/01/24 08:57:10;;;;;;;16.25;13.43;;;5.20;97.20;;;;;;1720264;28;20228;-71
2023/01/24 08:58:03;;;;;;;17.40;14.37;;;5.20;97.20;;;;;;1720648;28;20209;-71
2023/01/24 08:58:54;;;;;;;14.82;13.20;;;5.30;97.20;;;;;;1720551;28;20455;-72
2023/01/24 08:59:46;;;;;;;15.85;13.77;;;5.30;97.20;;;;;;1720616;28;20201;-72
2023/01/24 09:00:36;;;;;;;16.08;13.30;;;5.30;97.20;;;;;;1720503;28;20703;-72
2023/01/24 09:01:28;;;;;;;16.00;14.23;;;5.30;97.20;;;;;;1720686;28;20567;-71
2023/01/24 09:02:19;;;;;;;16.35;14.30;;;5.30;97.20;;;;;;1720583;28;20587;-71
2023/01/24 09:03:13;;;;;;;17.37;13.70;;;5.30;97.20;;;;;;1720474;28;20586;-71
2023/01/24 09:04:04;;;;;;;18.10;14.07;;;5.30;97.20;;;;;;1720684;28;20723;-72
2023/01/24 09:04:56;;;;;;;15.95;13.25;;;5.30;97.20;;;;;;1720735;28;20237;-71
2023/01/24 09:05:47;;;;;;;15.80;14.10;;;5.30;97.20;;;;;;1720586;28;20201;-72
2023/01/24 09:06:40;;;;;;;14.77;13.10;;;5.30;97.20;;;;;;1720644;28;20200;-71
2023/01/24 09:07:31;;;;;;;15.60;13.13;;;5.30;97.20;;;;;;1719818;28;20571;-71
2023/01/24 09:08:23;;;;;;;17.63;13.75;;;5.30;97.20;;;;;;1717425;28;20651;-71
2023/01/24 09:09:15;;;;;;;15.82;14.10;;;5.30;97.20;;;;;;1720639;28;20217;-70
2023/01/24 09:10:08;;;;;;;17.75;14.52;;;5.30;97.20;;;;;;1720632;28;20239;-71
2023/01/24 09:10:59;;;;;;;18.23;14.18;;;5.40;97.20;;;;;;1720544;28;20225;-70
2023/01/24 09:11:52;;;;;;;16.90;14.55;;;5.40;97.20;;;;;;1720491;28;20275;-70
2023/01/24 09:12:43;;;;;;;18.60;14.05;;;5.40;97.20;;;;;;1720295;28;20295;-70
2023/01/24 09:13:34;;;;;;;16.30;14.45;;;5.40;97.20;;;;;;1720640;28;20212;-71
2023/01/24 09:14:26;;;;;;;15.60;13.80;;;5.40;97.20;;;;;;1720574;28;20212;-70
2023/01/24 09:15:17;;;;;;;16.35;13.55;;;5.50;97.20;;;;;;1720566;28;20232;-70
2023/01/24 09:16:08;;;;;;;15.67;13.90;;;5.50;97.20;;;;;;1720735;28;20211;-71
2023/01/24 09:16:59;;;;;;;15.60;13.90;;;5.50;97.20;;;;;;1720404;28;20445;-71
2023/01/24 09:17:51;;;;;;;16.80;13.67;;;5.50;97.20;;;;;;1712660;28;20207;-70
2023/01/24 09:18:42;;;;;;;15.75;13.75;;;5.50;97.20;;;;;;1718428;28;20259;-71
2023/01/24 09:19:34;;;;;;;16.60;14.40;;;5.50;97.20;;;;;;1719890;28;20247;-71
2023/01/24 09:20:25;;;;;;;16.55;14.10;;;5.50;97.20;;;;;;1719104;28;20683;-71
2023/01/24 09:21:17;;;;;;;16.23;14.05;;;5.50;97.20;;;;;;1719179;28;20255;-71
2023/01/24 09:22:09;;;;;;;15.93;13.98;;;5.50;97.20;;;;;;1719658;28;20247;-71
2023/01/24 09:23:08;;;;;;;16.02;14.32;;;5.50;97.20;;;;;;1719638;28;20223;-70
2023/01/24 09:24:00;;;;;;;19.85;14.60;;;5.50;97.20;;;;;;1719916;28;20339;-70
2023/01/24 09:24:50;;;;;;;15.05;13.13;;;5.50;97.20;;;;;;1719877;28;20201;-71
2023/01/24 09:25:49;;;;;;;17.17;13.93;;;5.50;97.20;;;;;;1720339;28;20196;-71
2023/01/24 09:26:40;;;;;;;19.33;14.60;;;5.50;97.20;;;;;;1719996;28;20236;-71
2023/01/24 09:27:32;;;;;;;17.75;14.98;;;5.50;97.20;;;;;;1720256;28;20205;-70
2023/01/24 09:28:23;;;;;;;16.95;14.43;;;5.50;97.20;;;;;;1720017;28;20240;-71
2023/01/24 09:29:14;;;;;;;16.00;14.13;;;5.50;97.20;;;;;;1720276;28;20212;-71
2023/01/24 09:30:06;;;;;;;15.90;14.02;;;5.50;97.20;;;;;;1720555;28;20227;-71
2023/01/24 09:30:58;;;;;;;15.05;13.32;;;5.50;97.20;;;;;;1720340;28;20272;-70
2023/01/24 09:31:49;;;;;;;17.30;13.20;;;5.50;97.20;;;;;;1720559;28;20727;-71
2023/01/24 09:32:44;;;;;;;16.23;14.53;;;5.60;97.20;;;;;;1720551;28;20572;-70
2023/01/24 09:33:36;;;;;;;15.70;13.32;;;5.60;97.20;;;;;;1720473;28;20212;-71
2023/01/24 09:34:26;;;;;;;15.02;12.93;;;5.60;97.20;;;;;;1720468;28;20256;-71
2023/01/24 09:35:21;;;;;;;16.30;14.60;;;5.60;97.20;;;;;;1720556;28;20228;-70
2023/01/24 09:36:12;;;;;;;16.20;14.20;;;5.60;97.20;;;;;;1720676;28;20202;-71
2023/01/24 09:37:04;;;;;;;16.23;14.00;;;5.60;97.20;;;;;;1720291;28;20209;-70
2023/01/24 09:37:56;;;;;;;16.20;13.80;;;5.60;97.20;;;;;;1720236;28;20212;-71
2023/01/24 09:38:49;;;;;;;15.65;13.15;;;5.60;97.20;;;;;;1720454;28;20593;-71
2023/01/24 09:39:39;;;;;;;16.52;13.80;;;5.60;97.20;;;;;;1720564;28;20240;-71
2023/01/24 09:40:45;;;;;;;14.40;12.90;;;5.60;97.20;;;;;;1720381;28;20647;-71
2023/01/24 09:42:12;;;;;;;14.65;13.05;;;5.50;97.20;;;;;;1720595;28;20201;-74
2023/01/24 09:43:27;;;;;;;16.25;13.32;;;5.50;97.20;;;;;;1716109;28;20209;-71
2023/01/24 09:44:26;;;;;;;15.02;13.10;;;5.50;97.20;;;;;;1720570;28;20797;-70
2023/01/24 09:45:22;;;;;;;13.93;12.43;;;5.60;97.20;;;;;;1720545;28;20201;-72
2023/01/24 09:46:26;;;;;;;15.63;12.60;;;5.50;97.20;;;;;;1720518;28;20205;-71
2023/01/24 09:47:24;;;;;;;14.00;12.60;;;5.60;97.20;;;;;;1720232;28;20205;-71
2023/01/24 09:48:15;;;;;;;16.15;13.27;;;5.50;97.20;;;;;;1720044;28;20198;-71
2023/01/24 09:49:15;;;;;;;16.38;14.13;;;5.60;97.20;;;;;;1720466;28;20202;-71
2023/01/24 09:50:13;;;;;;;14.75;13.25;;;5.60;97.20;;;;;;1720619;28;20660;-71
2023/01/24 09:51:07;;;;;;;23.73;15.60;;;5.60;97.20;;;;;;1720587;28;20621;-71
2023/01/24 09:51:59;;;;;;;17.27;14.05;;;5.60;97.20;;;;;;1720488;28;20201;-70
2023/01/24 09:52:54;;;;;;;16.75;14.77;;;5.60;97.20;;;;;;1720544;28;20201;-71
2023/01/24 09:53:51;;;;;;;18.38;15.23;;;5.60;97.20;;;;;;1720420;28;20205;-71
2023/01/24 09:54:49;;;;;;;18.00;14.55;;;5.70;97.20;;;;;;1720479;28;20201;-72
2023/01/24 09:55:41;;;;;;;16.83;14.13;;;5.70;97.20;;;;;;1720894;28;20811;-71
2023/01/24 09:56:36;;;;;;;15.73;12.55;;;5.80;97.20;;;;;;1721769;28;20287;-71
2023/01/24 09:57:32;;;;;;;16.48;13.50;;;5.80;97.20;;;;;;1721629;28;20202;-71
2023/01/24 09:58:32;;;;;;;15.70;13.50;;;5.80;97.20;;;;;;1721415;28;20276;-71
2023/01/24 09:59:29;;;;;;;14.00;12.40;;;5.90;97.20;;;;;;1721643;28;20611;-71
2023/01/24 10:00:26;;;;;;;15.50;13.52;;;5.90;97.20;;;;;;1721686;28;20212;-70
2023/01/24 10:01:16;;;;;;;16.27;13.30;;;6.00;97.20;;;;;;1721726;28;20216;-71
2023/01/24 10:02:17;;;;;;;14.37;12.93;;;6.00;97.20;;;;;;1721779;28;20284;-71
2023/01/24 10:03:18;;;;;;;14.60;12.60;;;6.00;97.20;;;;;;1721755;28;20205;-70
2023/01/24 10:04:16;;;;;;;14.02;12.52;;;6.10;97.20;;;;;;1721731;28;20244;-70
2023/01/24 10:05:13;;;;;;;14.88;12.85;;;6.10;97.20;;;;;;1721790;28;20227;-72
2023/01/24 10:06:14;;;;;;;13.95;12.55;;;6.10;97.20;;;;;;1721641;28;20202;-71
2023/01/24 10:07:45;;;;;;;15.25;12.45;;;6.10;97.20;;;;;;1721398;28;20205;-71
2023/01/24 10:08:39;;;;;;;13.93;12.52;;;6.20;97.20;;;;;;1720816;28;20216;-71
2023/01/24 10:09:45;;;;;;;12.77;11.48;;;6.20;97.20;;;;;;1721599;28;20197;-70
2023/01/24 10:10:44;;;;;;;15.07;12.50;;;6.10;97.20;;;;;;1721374;28;20222;-71
2023/01/24 10:11:46;;;;;;;14.60;13.10;;;6.10;97.20;;;;;;1721714;28;20674;-70
2023/01/24 10:12:46;;;;;;;17.35;13.00;;;6.10;97.20;;;;;;1721351;28;20205;-71
2023/01/24 10:13:58;;;;;;;14.93;13.32;;;6.10;97.20;;;;;;1721624;28;20197;-71
2023/01/24 10:15:02;;;;;;;14.77;13.02;;;6.10;97.20;;;;;;1721606;28;20205;-71
2023/01/24 10:16:05;;;;;;;16.38;13.95;;;6.00;97.20;;;;;;1721709;28;20205;-71
2023/01/24 10:17:29;;;;;;;14.50;12.65;;;6.00;97.20;;;;;;1721489;28;20218;-70
2023/01/24 10:18:49;;;;;;;13.70;12.30;;;6.00;97.20;;;;;;1717869;28;20198;-71
2023/01/24 10:19:56;;;;;;;13.35;11.95;;;6.00;97.20;;;;;;1721645;28;20683;-71
2023/01/24 10:21:01;;;;;;;16.00;13.93;;;6.00;97.20;;;;;;1721608;28;20300;-71
2023/01/24 10:22:25;;;;;;;15.38;13.73;;;5.90;97.20;;;;;;1721754;28;20205;-71
2023/01/24 10:23:20;;;;;;;16.55;13.20;;;5.90;97.20;;;;;;1721566;28;20216;-71
2023/01/24 10:24:15;;;;;;;14.07;12.38;;;5.90;97.20;;;;;;1721628;28;20197;-70
2023/01/24 10:25:14;;;;;;;14.43;12.40;;;5.90;97.20;;;;;;1721629;28;20208;-71
2023/01/24 10:26:17;;;;;;;15.95;12.93;;;5.90;97.20;;;;;;1721649;28;20205;-70
2023/01/24 10:27:18;;;;;;;13.52;12.00;;;5.90;97.20;;;;;;1721316;28;20216;-71
2023/01/24 10:28:20;;;;;;;13.88;12.43;;;5.90;97.20;;;;;;1721491;28;20226;-71
2023/01/24 10:29:16;;;;;;;13.90;12.00;;;5.90;97.20;;;;;;1721492;28;20671;-70
2023/01/24 10:30:15;;;;;;;14.60;12.70;;;5.90;97.20;;;;;;1721566;28;20209;-71
2023/01/24 10:31:12;;;;;;;15.32;12.60;;;5.90;97.20;;;;;;1721603;28;20742;-71
2023/01/24 10:32:04;;;;;;;14.75;13.13;;;5.90;97.20;;;;;;1721497;28;20282;-71
2023/01/24 10:33:02;;;;;;;13.73;11.85;;;5.90;97.20;;;;;;1721516;28;20208;-70
2023/01/24 10:33:57;;;;;;;14.68;12.40;;;5.90;97.20;;;;;;1721336;28;20212;-70
2023/01/24 10:34:57;;;;;;;14.00;12.40;;;5.90;97.20;;;;;;1721467;28;20205;-71
2023/01/24 10:35:56;;;;;;;14.82;12.25;;;5.90;97.20;;;;;;1721075;28;20200;-71
2023/01/24 10:36:54;;;;;;;16.65;12.60;;;5.90;97.20;;;;;;1721408;28;20213;-70